createdAt,value
2022-08-19T00:00:44.565Z,7.59
2022-08-19T00:02:16.296Z,7.57
2022-08-19T00:03:53.177Z,7.75
2022-08-19T00:05:24.925Z,7.91
2022-08-19T00:06:56.642Z,7.97
2022-08-19T00:08:33.508Z,8.23
2022-08-19T00:10:05.527Z,8.29
2022-08-19T00:11:37.355Z,8.26
2022-08-19T00:13:08.812Z,8.44
2022-08-19T00:14:45.540Z,8.39
2022-08-19T00:16:17.167Z,8.26
2022-08-19T00:17:48.787Z,7.74
2022-08-19T00:19:20.750Z,7.94
2022-08-19T00:20:57.872Z,7.90
2022-08-19T00:22:29.713Z,6.96
2022-08-19T00:24:01.410Z,7.09
2022-08-19T00:25:33.328Z,7.00
2022-08-19T00:27:26.170Z,7.47
2022-08-19T00:28:58.530Z,7.12
2022-08-19T00:30:30.112Z,7.88
2022-08-19T00:32:01.704Z,7.93
2022-08-19T00:33:33.274Z,8.02
2022-08-19T00:35:04.852Z,7.94
2022-08-19T00:36:36.675Z,8.33
2022-08-19T00:38:08.552Z,8.00
2022-08-19T00:39:45.521Z,9.08
2022-08-19T00:41:21.039Z,8.86
2022-08-19T00:42:52.926Z,9.08
2022-08-19T00:44:26.751Z,9.53
2022-08-19T00:45:59.204Z,9.75
2022-08-19T00:47:30.936Z,9.29
2022-08-19T00:49:02.774Z,9.31
2022-08-19T00:50:34.584Z,9.30
2022-08-19T00:52:06.305Z,9.69
2022-08-19T00:53:38.022Z,9.99
2022-08-19T00:55:09.932Z,10.02
2022-08-19T00:56:41.858Z,10.48
2022-08-19T00:58:13.545Z,10.26
2022-08-19T01:00:00.906Z,10.12
2022-08-19T01:01:35.017Z,10.34
2022-08-19T01:03:06.566Z,10.39
2022-08-19T01:04:38.296Z,10.04
2022-08-19T01:06:10.216Z,10.22
2022-08-19T01:07:41.904Z,9.44
2022-08-19T01:09:13.528Z,8.08
2022-08-19T01:10:45.348Z,8.22
2022-08-19T01:12:17.258Z,8.33
2022-08-19T01:13:50.324Z,8.53
2022-08-19T01:15:21.956Z,9.63
2022-08-19T01:16:53.423Z,9.75
2022-08-19T01:18:25.436Z,8.88
2022-08-19T01:19:57.211Z,8.96
2022-08-19T01:21:28.835Z,9.02
2022-08-19T01:23:00.424Z,9.38
2022-08-19T01:24:32.103Z,9.62
2022-08-19T01:26:08.808Z,9.39
2022-08-19T01:27:43.324Z,9.27
2022-08-19T01:29:15.576Z,9.15
2022-08-19T01:30:50.976Z,8.77
2022-08-19T01:32:33.198Z,8.77
2022-08-19T01:34:05.703Z,9.17
2022-08-19T01:35:37.735Z,8.94
2022-08-19T01:37:09.516Z,8.75
2022-08-19T01:38:44.052Z,9.34
2022-08-19T01:40:16.724Z,9.55
2022-08-19T01:41:48.412Z,9.43
2022-08-19T01:43:20.430Z,9.41
2022-08-19T01:44:52.414Z,9.64
2022-08-19T01:46:29.247Z,9.78
2022-08-19T01:48:07.188Z,10.53
2022-08-19T01:49:39.378Z,10.55
2022-08-19T01:51:11.040Z,10.08
2022-08-19T01:52:42.862Z,9.95
2022-08-19T01:54:27.001Z,9.96
2022-08-19T01:55:59.878Z,9.38
2022-08-19T01:57:31.487Z,9.10
2022-08-19T01:59:03.380Z,8.70
2022-08-19T02:00:40.070Z,9.24
2022-08-19T02:02:21.714Z,9.22
2022-08-19T02:03:53.646Z,9.99
2022-08-19T02:05:28.871Z,10.40
2022-08-19T02:07:00.929Z,10.82
2022-08-19T02:08:32.644Z,11.03
2022-08-19T02:10:08.954Z,11.44
2022-08-19T02:11:44.442Z,11.41
2022-08-19T02:13:16.304Z,11.77
2022-08-19T02:14:54.637Z,11.49
2022-08-19T02:16:26.496Z,12.05
2022-08-19T02:17:58.646Z,11.74
2022-08-19T02:19:30.434Z,11.83
2022-08-19T02:21:02.532Z,11.50
2022-08-19T02:22:34.621Z,12.15
2022-08-19T02:24:06.649Z,12.07
2022-08-19T02:25:38.705Z,12.76
2022-08-19T02:27:10.593Z,13.40
2022-08-19T02:28:42.458Z,12.66
2022-08-19T02:30:14.634Z,11.03
2022-08-19T02:31:56.771Z,11.60
2022-08-19T02:33:28.602Z,11.67
2022-08-19T02:35:00.361Z,10.78
2022-08-19T02:36:32.512Z,10.64
2022-08-19T02:38:04.793Z,10.92
2022-08-19T02:39:36.559Z,11.14
2022-08-19T02:41:08.616Z,10.99
2022-08-19T02:42:40.660Z,10.82
2022-08-19T02:44:29.362Z,10.65
2022-08-19T02:46:02.889Z,10.88
2022-08-19T02:47:34.823Z,10.59
2022-08-19T02:49:06.851Z,10.25
2022-08-19T02:50:39.035Z,10.19
2022-08-19T02:52:11.051Z,10.73
2022-08-19T02:53:43.027Z,10.36
2022-08-19T02:55:14.628Z,10.10
2022-08-19T02:56:46.433Z,9.93
2022-08-19T02:58:18.437Z,9.86
2022-08-19T02:59:51.473Z,10.52
2022-08-19T03:01:23.327Z,10.95
2022-08-19T03:02:55.321Z,11.91
2022-08-19T03:04:27.361Z,11.49
2022-08-19T03:05:59.284Z,11.54
2022-08-19T03:07:37.040Z,12.29
2022-08-19T03:09:08.830Z,12.20
2022-08-19T03:10:40.692Z,11.90
2022-08-19T03:12:13.067Z,11.52
2022-08-19T03:13:44.689Z,10.79
2022-08-19T03:15:16.411Z,11.51
2022-08-19T03:16:48.318Z,12.33
2022-08-19T03:18:20.583Z,12.59
2022-08-19T03:19:55.310Z,13.07
2022-08-19T03:21:27.217Z,12.97
2022-08-19T03:22:58.953Z,13.50
2022-08-19T03:24:30.677Z,14.06
2022-08-19T03:26:15.585Z,13.72
2022-08-19T03:27:53.231Z,14.02
2022-08-19T03:29:30.433Z,14.04
2022-08-19T03:31:03.235Z,14.53
2022-08-19T03:32:35.891Z,15.86
2022-08-19T03:34:17.405Z,16.68
2022-08-19T03:35:49.161Z,16.61
2022-08-19T03:37:20.912Z,16.10
2022-08-19T03:38:56.405Z,16.32
2022-08-19T03:40:31.787Z,15.52
2022-08-19T03:42:33.187Z,15.52
2022-08-19T03:44:19.692Z,14.26
2022-08-19T03:45:51.445Z,12.83
2022-08-19T03:47:28.104Z,13.00
2022-08-19T03:49:00.062Z,13.29
2022-08-19T03:50:31.830Z,13.67
2022-08-19T03:52:03.323Z,12.75
2022-08-19T03:53:35.011Z,13.01
2022-08-19T03:55:06.918Z,13.46
2022-08-19T03:58:39.601Z,14.12
2022-08-19T04:00:14.255Z,14.67
2022-08-19T04:01:46.301Z,14.94
2022-08-19T04:03:18.136Z,15.51
2022-08-19T04:04:54.827Z,16.14
2022-08-19T04:06:26.526Z,15.57
2022-08-19T04:08:03.417Z,16.03
2022-08-19T04:09:35.091Z,15.74
2022-08-19T04:11:06.796Z,15.87
2022-08-19T04:12:38.884Z,16.22
2022-08-19T04:14:10.465Z,15.80
2022-08-19T04:15:42.366Z,15.70
2022-08-19T04:17:14.324Z,15.98
2022-08-19T04:18:46.188Z,15.49
2022-08-19T04:20:22.824Z,14.94
2022-08-19T04:21:54.675Z,14.62
2022-08-19T04:23:26.516Z,14.42
2022-08-19T04:24:58.555Z,14.36
2022-08-19T04:26:30.474Z,14.62
2022-08-19T04:28:02.565Z,14.52
2022-08-19T04:29:34.602Z,15.18
2022-08-19T04:31:06.405Z,15.11
2022-08-19T04:32:38.570Z,14.86
2022-08-19T04:34:10.043Z,14.77
2022-08-19T04:35:41.943Z,15.14
2022-08-19T04:37:16.756Z,14.76
2022-08-19T04:38:48.605Z,14.43
2022-08-19T04:40:20.240Z,13.60
2022-08-19T04:41:52.017Z,13.96
2022-08-19T04:43:23.585Z,15.03
2022-08-19T04:44:57.082Z,14.93
2022-08-19T04:46:40.431Z,14.88
2022-08-19T04:48:28.386Z,14.76
2022-08-19T04:50:00.115Z,14.32
2022-08-19T04:51:37.095Z,14.80
2022-08-19T04:53:09.112Z,14.62
2022-08-19T04:54:41.184Z,14.89
2022-08-19T04:56:12.909Z,15.10
2022-08-19T04:57:44.987Z,15.73
2022-08-19T04:59:16.757Z,15.95
2022-08-19T05:00:48.394Z,15.91
2022-08-19T05:02:20.129Z,15.86
2022-08-19T05:03:52.260Z,16.61
2022-08-19T05:05:23.873Z,16.05
2022-08-19T05:07:01.158Z,16.34
2022-08-19T05:08:33.199Z,16.38
2022-08-19T05:10:05.043Z,16.83
2022-08-19T05:11:36.714Z,16.72
2022-08-19T05:13:08.631Z,17.54
2022-08-19T05:14:40.618Z,17.65
2022-08-19T05:16:12.412Z,17.49
2022-08-19T05:17:44.119Z,17.90
2022-08-19T05:19:15.614Z,17.43
2022-08-19T05:20:47.642Z,18.51
2022-08-19T05:22:19.602Z,18.84
2022-08-19T05:23:51.147Z,19.11
2022-08-19T05:25:23.007Z,19.68
2022-08-19T05:26:54.947Z,19.43
2022-08-19T05:28:26.607Z,19.14
2022-08-19T05:29:58.478Z,18.92
2022-08-19T05:31:30.516Z,19.07
2022-08-19T05:33:02.659Z,19.13
2022-08-19T05:34:39.513Z,19.31
2022-08-19T05:36:11.639Z,19.27
2022-08-19T05:37:43.355Z,18.25
2022-08-19T05:39:15.254Z,18.38
2022-08-19T05:40:47.240Z,18.72
2022-08-19T05:42:19.406Z,18.01
2022-08-19T05:43:51.151Z,17.51
2022-08-19T05:45:22.814Z,17.45
2022-08-19T05:46:54.430Z,17.52
2022-08-19T05:48:26.173Z,16.94
2022-08-19T05:49:57.722Z,16.41
2022-08-19T05:51:29.472Z,16.91
2022-08-19T05:53:01.549Z,16.81
2022-08-19T05:54:33.198Z,16.75
2022-08-19T05:56:04.901Z,15.94
2022-08-19T05:57:42.019Z,16.59
2022-08-19T05:59:18.901Z,16.36
2022-08-19T06:00:50.854Z,16.43
2022-08-19T06:02:22.724Z,16.81
2022-08-19T06:03:55.130Z,16.12
2022-08-19T06:05:26.884Z,14.98
2022-08-19T06:06:58.841Z,15.10
2022-08-19T06:08:33.693Z,13.95
2022-08-19T06:10:05.899Z,15.29
2022-08-19T06:11:37.745Z,15.96
2022-08-19T06:13:14.580Z,16.44
2022-08-19T06:14:46.729Z,16.30
2022-08-19T06:16:28.900Z,16.92
2022-08-19T06:18:00.764Z,16.69
2022-08-19T06:19:32.532Z,16.39
2022-08-19T06:21:04.297Z,16.78
2022-08-19T06:22:36.368Z,16.97
2022-08-19T06:24:08.040Z,16.14
2022-08-19T06:25:39.974Z,15.59
2022-08-19T06:27:13.798Z,15.73
2022-08-19T06:28:50.755Z,16.38
2022-08-19T06:30:22.521Z,15.75
2022-08-19T06:31:54.626Z,15.56
2022-08-19T06:33:26.185Z,15.57
2022-08-19T06:35:02.849Z,15.04
2022-08-19T06:36:34.556Z,15.52
2022-08-19T06:38:06.702Z,15.64
2022-08-19T06:39:38.567Z,15.63
2022-08-19T06:41:10.284Z,15.18
2022-08-19T06:42:49.463Z,15.16
2022-08-19T06:44:27.153Z,15.12
2022-08-19T06:45:59.130Z,14.99
2022-08-19T06:47:30.799Z,14.97
2022-08-19T06:49:02.455Z,14.76
2022-08-19T06:50:35.111Z,14.86
2022-08-19T06:52:13.887Z,14.68
2022-08-19T06:53:46.172Z,14.41
2022-08-19T06:55:19.425Z,13.89
2022-08-19T06:56:51.249Z,14.14
2022-08-19T06:58:23.231Z,13.67
2022-08-19T06:59:54.746Z,13.52
2022-08-19T07:01:26.731Z,13.45
2022-08-19T07:03:01.849Z,13.86
2022-08-19T07:04:36.541Z,13.47
2022-08-19T07:06:09.846Z,13.49
2022-08-19T07:07:53.009Z,13.15
2022-08-19T07:09:24.613Z,13.11
2022-08-19T07:10:56.402Z,13.07
2022-08-19T07:12:27.880Z,13.21
2022-08-19T07:14:01.512Z,13.31
2022-08-19T07:15:33.291Z,13.17
2022-08-19T07:17:04.991Z,13.41
2022-08-19T07:18:37.345Z,13.11
2022-08-19T07:20:15.290Z,12.96
2022-08-19T07:21:50.621Z,12.68
2022-08-19T07:23:22.625Z,13.10
2022-08-19T07:24:56.015Z,13.01
2022-08-19T07:26:28.244Z,13.11
2022-08-19T07:28:01.476Z,12.91
2022-08-19T07:29:33.410Z,12.67
2022-08-19T07:31:07.305Z,13.18
2022-08-19T07:32:41.439Z,12.97
2022-08-19T07:34:13.467Z,12.62
2022-08-19T07:35:45.449Z,13.14
2022-08-19T07:37:17.224Z,12.98
2022-08-19T07:38:51.276Z,12.86
2022-08-19T07:40:23.245Z,13.79
2022-08-19T07:41:55.092Z,13.75
2022-08-19T07:43:34.931Z,12.83
2022-08-19T07:45:07.162Z,12.91
2022-08-19T07:46:38.994Z,13.00
2022-08-19T07:48:10.700Z,13.19
2022-08-19T07:49:42.810Z,13.77
2022-08-19T07:51:14.443Z,13.67
2022-08-19T07:53:01.357Z,13.21
2022-08-19T07:54:33.395Z,13.85
2022-08-19T07:56:05.544Z,14.21
2022-08-19T07:57:42.373Z,14.36
2022-08-19T07:59:39.277Z,14.30
2022-08-19T08:01:11.413Z,14.51
2022-08-19T08:02:43.168Z,14.22
2022-08-19T08:04:14.890Z,15.10
2022-08-19T08:05:46.739Z,13.97
2022-08-19T08:07:18.537Z,14.29
2022-08-19T08:08:50.547Z,13.96
2022-08-19T08:10:24.694Z,14.89
2022-08-19T08:11:57.714Z,14.94
2022-08-19T08:13:33.852Z,14.98
2022-08-19T08:15:08.300Z,15.24
2022-08-19T08:16:47.355Z,14.82
2022-08-19T08:18:19.078Z,13.90
2022-08-19T08:19:50.967Z,14.38
2022-08-19T08:21:23.693Z,14.16
2022-08-19T08:22:55.573Z,13.70
2022-08-19T08:24:28.340Z,13.99
2022-08-19T08:26:00.734Z,12.95
2022-08-19T08:27:34.723Z,12.35
2022-08-19T08:29:12.414Z,12.02
2022-08-19T08:30:50.759Z,11.45
2022-08-19T08:32:22.823Z,11.29
2022-08-19T08:33:59.389Z,10.91
2022-08-19T08:35:30.875Z,10.15
2022-08-19T08:37:02.480Z,10.57
2022-08-19T08:38:38.992Z,10.65
2022-08-19T08:40:13.315Z,10.56
2022-08-19T08:41:45.095Z,10.83
2022-08-19T08:43:21.872Z,11.21
2022-08-19T08:46:31.316Z,10.75
2022-08-19T08:48:04.236Z,12.03
2022-08-19T08:49:54.103Z,12.04
2022-08-19T08:51:25.682Z,12.93
2022-08-19T08:53:06.838Z,12.79
2022-08-19T08:54:38.641Z,12.86
2022-08-19T08:56:11.682Z,12.42
2022-08-19T08:57:43.765Z,13.51
2022-08-19T08:59:15.322Z,13.20
2022-08-19T09:00:47.209Z,13.33
2022-08-19T09:02:19.147Z,14.54
2022-08-19T09:03:51.868Z,13.78
2022-08-19T09:05:26.069Z,13.94
2022-08-19T09:06:58.012Z,14.65
2022-08-19T09:08:29.716Z,14.80
2022-08-19T09:10:02.463Z,15.37
2022-08-19T09:11:41.987Z,15.71
2022-08-19T09:13:14.917Z,15.33
2022-08-19T09:14:50.839Z,14.50
2022-08-19T09:16:28.337Z,13.07
2022-08-19T09:17:59.949Z,12.25
2022-08-19T09:19:31.860Z,11.44
2022-08-19T09:21:04.352Z,11.31
2022-08-19T09:22:36.215Z,11.24
2022-08-19T09:24:07.872Z,11.48
2022-08-19T09:25:39.717Z,13.20
2022-08-19T09:27:18.445Z,12.55
2022-08-19T09:28:50.556Z,13.56
2022-08-19T09:30:23.367Z,12.36
2022-08-19T09:31:54.924Z,13.19
2022-08-19T09:33:26.774Z,13.77
2022-08-19T09:35:01.175Z,14.78
2022-08-19T09:36:35.966Z,13.43
2022-08-19T09:38:07.648Z,13.57
2022-08-19T09:39:42.138Z,12.58
2022-08-19T09:41:13.883Z,12.67
2022-08-19T09:42:50.222Z,11.78
2022-08-19T09:44:24.624Z,13.04
2022-08-19T09:45:58.981Z,13.51
2022-08-19T09:47:30.741Z,13.17
2022-08-19T09:49:06.047Z,14.49
2022-08-19T09:50:38.567Z,16.54
2022-08-19T09:52:10.353Z,17.92
2022-08-19T09:53:45.854Z,17.21
2022-08-19T09:55:17.672Z,18.26
2022-08-19T09:56:54.610Z,20.24
2022-08-19T09:58:31.371Z,19.69
2022-08-19T10:00:03.279Z,20.12
2022-08-19T10:01:40.260Z,21.11
2022-08-19T10:03:12.102Z,21.64
2022-08-19T10:04:43.851Z,22.65
2022-08-19T10:06:17.386Z,24.45
2022-08-19T10:07:49.285Z,25.11
2022-08-19T10:09:33.825Z,24.83
2022-08-19T10:11:28.292Z,22.85
2022-08-19T10:13:06.895Z,17.23
2022-08-19T10:14:39.591Z,14.93
2022-08-19T10:16:11.325Z,12.91
2022-08-19T10:17:46.880Z,11.72
2022-08-19T10:19:25.692Z,10.91
2022-08-19T10:20:57.873Z,10.15
2022-08-19T10:22:29.521Z,9.53
2022-08-19T10:24:03.155Z,9.41
2022-08-19T10:25:39.714Z,9.23
2022-08-19T10:27:15.329Z,8.83
2022-08-19T10:28:48.019Z,8.91
2022-08-19T15:31:50.776Z,4.10
2022-08-19T15:33:22.331Z,4.10
2022-08-19T15:34:53.822Z,4.12
2022-08-19T15:36:25.643Z,3.94
2022-08-19T15:37:57.422Z,4.07
2022-08-19T15:39:29.303Z,4.05
2022-08-19T15:41:00.810Z,4.20
2022-08-19T15:42:32.331Z,3.92
2022-08-19T15:44:03.949Z,4.28
2022-08-19T15:45:35.482Z,4.02
2022-08-19T15:47:07.046Z,3.63
2022-08-19T15:48:38.705Z,3.84
2022-08-19T15:50:10.645Z,4.00
2022-08-19T15:51:42.554Z,3.57
2022-08-19T15:53:14.227Z,3.81
2022-08-19T15:54:45.929Z,3.74
2022-08-19T15:56:17.572Z,3.89
2022-08-19T15:57:49.217Z,3.93
2022-08-19T15:59:20.804Z,4.03
2022-08-19T16:00:52.805Z,4.15
2022-08-19T16:02:32.379Z,4.13
2022-08-19T16:04:04.129Z,3.99
2022-08-19T16:05:35.768Z,4.22
2022-08-19T16:07:07.559Z,4.27
2022-08-19T16:08:49.068Z,4.43
2022-08-19T16:10:27.503Z,4.34
2022-08-19T16:12:01.499Z,4.48
2022-08-19T16:13:33.913Z,4.06
2022-08-19T16:15:05.419Z,4.09
2022-08-19T16:16:37.021Z,4.24
2022-08-19T16:18:08.596Z,4.52
2022-08-19T16:19:40.161Z,5.04
2022-08-19T16:21:11.744Z,4.68
2022-08-19T16:22:43.390Z,4.77
2022-08-19T16:24:14.997Z,4.95
2022-08-19T16:25:46.578Z,5.03
2022-08-19T16:27:18.145Z,5.06
2022-08-19T16:28:49.646Z,5.11
2022-08-19T16:30:22.784Z,5.25
2022-08-19T16:31:54.428Z,5.24
2022-08-19T16:33:26.176Z,5.43
2022-08-19T16:34:57.798Z,5.10
2022-08-19T16:36:29.439Z,4.93
2022-08-19T16:38:03.202Z,4.94
2022-08-19T16:39:34.884Z,5.22
2022-08-19T16:41:06.465Z,5.30
2022-08-19T16:42:38.036Z,5.75
2022-08-19T16:44:09.585Z,5.62
2022-08-19T16:45:46.230Z,5.30
2022-08-19T16:47:17.984Z,5.72
2022-08-19T16:48:49.573Z,5.68
2022-08-19T16:50:29.195Z,5.48
2022-08-19T16:52:05.151Z,5.52
2022-08-19T16:53:36.888Z,5.44
2022-08-19T16:55:08.657Z,5.64
2022-08-19T16:56:40.270Z,5.67
2022-08-19T16:58:11.848Z,5.42
2022-08-19T16:59:48.233Z,5.18
2022-08-19T17:01:20.459Z,5.15
2022-08-19T17:02:52.209Z,5.29
2022-08-19T17:04:23.862Z,4.95
2022-08-19T17:05:55.405Z,4.96
2022-08-19T17:07:29.039Z,4.94
2022-08-19T17:09:00.682Z,5.14
2022-08-19T17:10:32.277Z,5.29
2022-08-19T17:12:04.107Z,5.05
2022-08-19T17:13:35.626Z,5.17
2022-08-19T17:15:31.105Z,5.14
2022-08-19T17:17:03.115Z,5.20
2022-08-19T17:18:34.632Z,5.28
2022-08-19T17:20:06.296Z,5.49
2022-08-19T17:21:37.880Z,5.86
2022-08-19T17:23:12.917Z,6.25
2022-08-19T17:24:46.169Z,6.04
2022-08-19T17:26:18.614Z,6.24
2022-08-19T17:27:50.607Z,6.11
2022-08-19T17:29:22.215Z,6.33
2022-08-19T17:30:53.811Z,6.30
2022-08-19T17:32:25.437Z,6.27
2022-08-19T17:33:57.019Z,6.00
2022-08-19T17:35:28.650Z,6.11
2022-08-19T17:37:00.162Z,6.54
2022-08-19T17:38:31.613Z,6.43
2022-08-19T17:40:03.199Z,6.46
2022-08-19T17:41:34.680Z,6.75
2022-08-19T17:43:06.136Z,7.26
2022-08-19T17:44:37.772Z,7.86
2022-08-19T17:46:11.029Z,7.14
2022-08-19T17:47:42.882Z,7.21
2022-08-19T17:49:14.453Z,7.17
2022-08-19T17:50:46.079Z,7.38
2022-08-19T17:52:19.453Z,7.27
2022-08-19T17:53:51.102Z,6.85
2022-08-19T17:55:22.641Z,7.24
2022-08-19T17:56:54.197Z,7.39
2022-08-19T17:58:25.662Z,7.89
2022-08-19T17:59:58.017Z,7.88
2022-08-19T18:01:37.782Z,7.50
2022-08-19T18:03:25.825Z,7.82
2022-08-19T18:04:57.534Z,7.38
2022-08-19T18:06:29.063Z,7.59
2022-08-19T18:08:00.561Z,7.64
2022-08-19T18:09:42.546Z,7.47
2022-08-19T18:11:14.452Z,7.86
2022-08-19T18:12:45.887Z,7.40
2022-08-19T18:14:17.397Z,7.47
2022-08-19T18:15:48.904Z,7.54
2022-08-19T18:17:20.392Z,7.73
2022-08-19T18:18:51.996Z,7.43
2022-08-19T18:20:23.502Z,7.66
2022-08-19T18:21:55.824Z,7.66
2022-08-19T18:23:41.320Z,7.56
2022-08-19T18:25:17.430Z,7.65
2022-08-19T18:26:48.977Z,7.54
2022-08-19T18:28:20.539Z,7.74
2022-08-19T18:29:52.194Z,8.09
2022-08-19T18:31:24.016Z,7.86
2022-08-19T18:32:55.539Z,7.79
2022-08-19T18:34:27.057Z,7.48
2022-08-19T18:35:58.535Z,7.99
2022-08-19T18:37:30.213Z,8.18
2022-08-19T18:39:06.789Z,8.10
2022-08-19T18:40:39.656Z,8.36
2022-08-19T18:42:11.140Z,8.12
2022-08-19T18:43:43.369Z,8.40
2022-08-19T18:45:15.295Z,8.53
2022-08-19T18:46:47.107Z,8.79
2022-08-19T18:48:27.396Z,8.53
2022-08-19T18:49:59.764Z,8.57
2022-08-19T18:51:31.362Z,8.45
2022-08-19T18:53:03.073Z,8.50
2022-08-19T18:54:34.775Z,8.29
2022-08-19T18:56:06.664Z,8.49
2022-08-19T18:57:38.234Z,7.78
2022-08-19T18:59:09.998Z,8.18
2022-08-19T19:00:41.965Z,8.27
2022-08-19T19:02:18.409Z,8.10
2022-08-19T19:03:49.906Z,7.96
2022-08-19T19:05:21.307Z,7.92
2022-08-19T19:06:52.783Z,7.73
2022-08-19T19:08:26.967Z,7.95
2022-08-19T19:09:58.808Z,7.93
2022-08-19T19:11:30.357Z,7.88
2022-08-19T19:13:01.835Z,7.60
2022-08-19T19:14:48.723Z,7.32
2022-08-19T19:16:24.259Z,7.02
2022-08-19T19:18:20.837Z,7.26
2022-08-19T19:21:34.737Z,7.78
2022-08-19T19:23:06.538Z,7.59
2022-08-19T19:24:38.153Z,7.83
2022-08-19T19:26:09.877Z,8.06
2022-08-19T19:27:41.363Z,8.37
2022-08-19T19:29:12.871Z,8.53
2022-08-19T19:30:44.564Z,9.40
2022-08-19T19:32:16.072Z,9.24
2022-08-19T19:33:47.502Z,9.39
2022-08-19T19:35:18.956Z,9.59
2022-08-19T19:36:50.686Z,8.98
2022-08-19T19:38:22.100Z,9.09
2022-08-19T19:39:53.556Z,10.44
2022-08-19T19:41:25.170Z,10.70
2022-08-19T19:42:56.614Z,10.40
2022-08-19T19:44:30.935Z,10.93
2022-08-19T19:46:04.275Z,10.97
2022-08-19T19:47:39.394Z,11.16
2022-08-19T19:49:10.909Z,11.20
2022-08-19T19:50:42.361Z,11.22
2022-08-19T19:52:14.094Z,11.18
2022-08-19T19:53:45.860Z,10.99
2022-08-19T19:55:17.432Z,11.23
2022-08-19T19:56:49.008Z,11.53
2022-08-19T19:58:21.305Z,11.34
2022-08-19T20:00:00.733Z,11.56
2022-08-19T20:01:32.514Z,11.72
2022-08-19T20:03:05.174Z,11.85
2022-08-19T20:04:36.623Z,11.98
2022-08-19T20:06:08.142Z,12.47
2022-08-19T20:07:39.787Z,12.36
2022-08-19T20:09:11.256Z,12.43
2022-08-19T20:10:42.848Z,12.14
2022-08-19T20:12:14.535Z,12.69
2022-08-19T20:13:46.068Z,12.12
2022-08-19T20:15:17.545Z,12.53
2022-08-19T20:16:49.194Z,12.49
2022-08-19T20:18:20.759Z,12.39
2022-08-19T20:19:53.539Z,12.01
2022-08-19T20:21:24.964Z,12.06
2022-08-19T20:22:56.415Z,12.23
2022-08-19T20:24:27.941Z,12.28
2022-08-19T20:28:05.746Z,11.66
2022-08-19T20:29:41.519Z,11.77
2022-08-19T20:31:15.882Z,11.85
2022-08-19T20:32:47.349Z,16.60
2022-08-19T20:34:18.786Z,14.82
2022-08-19T20:35:51.993Z,12.96
2022-08-19T20:37:23.419Z,11.57
2022-08-19T20:38:55.057Z,11.45
2022-08-19T20:40:26.764Z,10.69
2022-08-19T20:41:58.370Z,10.64
2022-08-19T20:43:29.912Z,10.66
2022-08-19T20:45:01.449Z,10.48
2022-08-19T20:46:33.040Z,10.19
2022-08-19T20:48:05.167Z,10.20
2022-08-19T20:49:36.784Z,10.82
2022-08-19T20:51:08.261Z,10.48
2022-08-19T20:52:39.668Z,10.84
2022-08-19T20:54:11.119Z,10.35
2022-08-19T20:55:42.947Z,10.28
2022-08-19T20:57:14.950Z,10.39
2022-08-19T20:58:50.078Z,10.41
2022-08-19T21:00:26.009Z,10.28
2022-08-19T21:01:57.479Z,10.44
2022-08-19T21:03:29.107Z,10.74
2022-08-19T21:05:00.620Z,10.54
2022-08-19T21:06:32.154Z,10.18
2022-08-19T21:08:03.796Z,10.09
2022-08-19T21:09:35.369Z,10.01
2022-08-19T21:11:06.973Z,10.27
2022-08-19T21:12:38.370Z,10.21
2022-08-19T21:14:09.828Z,10.13
2022-08-19T21:15:41.288Z,10.84
2022-08-19T21:17:12.722Z,10.54
2022-08-19T21:18:44.453Z,9.97
2022-08-19T21:20:15.996Z,10.11
2022-08-19T21:21:47.482Z,9.89
2022-08-19T21:23:18.927Z,9.96
2022-08-19T21:24:50.425Z,9.73
2022-08-19T21:26:21.995Z,9.34
2022-08-19T21:27:53.431Z,9.41
2022-08-19T21:29:24.836Z,9.31
2022-08-19T21:30:56.277Z,9.21
2022-08-19T21:32:30.607Z,8.94
2022-08-19T21:34:02.007Z,8.43
2022-08-19T21:35:33.567Z,8.84
2022-08-19T21:37:05.178Z,8.54
2022-08-19T21:38:43.013Z,8.36
2022-08-19T21:40:14.553Z,8.61
2022-08-19T21:41:46.159Z,8.07
2022-08-19T21:43:17.946Z,8.49
2022-08-19T21:44:49.483Z,8.14
2022-08-19T21:46:20.914Z,7.50
2022-08-19T21:47:52.411Z,8.06
2022-08-19T21:49:23.907Z,7.70
2022-08-19T21:50:55.319Z,8.32
2022-08-19T21:52:26.733Z,7.91
2022-08-19T21:53:58.147Z,8.20
2022-08-19T21:55:29.567Z,7.68
2022-08-19T21:57:01.059Z,7.69
2022-08-19T21:58:32.499Z,7.79
2022-08-19T22:00:03.871Z,7.65
2022-08-19T22:01:35.526Z,7.64
2022-08-19T22:03:07.145Z,7.71
2022-08-19T22:04:38.737Z,7.62
2022-08-19T22:06:10.288Z,7.79
2022-08-19T22:07:41.731Z,8.14
2022-08-19T22:09:13.395Z,7.87
2022-08-19T22:10:45.212Z,7.42
2022-08-19T22:12:18.045Z,7.64
2022-08-19T22:13:50.477Z,7.58
2022-08-19T22:15:22.000Z,7.36
2022-08-19T22:16:53.398Z,7.51
2022-08-19T22:18:24.809Z,7.75
2022-08-19T22:19:56.352Z,7.40
2022-08-19T22:21:40.337Z,7.16
2022-08-19T22:23:12.571Z,7.24
2022-08-19T22:24:44.013Z,7.60
2022-08-19T22:26:15.727Z,7.77
2022-08-19T22:27:47.336Z,7.91
2022-08-19T22:29:18.764Z,8.14
2022-08-19T22:30:57.787Z,7.78
2022-08-19T22:32:29.181Z,8.00
2022-08-19T22:34:00.629Z,7.63
2022-08-19T22:35:32.053Z,7.49
2022-08-19T22:37:03.413Z,7.61
2022-08-19T22:38:34.860Z,7.67
2022-08-19T22:40:06.579Z,7.61
2022-08-19T22:41:38.082Z,7.51
2022-08-19T22:43:09.521Z,7.60
2022-08-19T22:44:40.972Z,7.28
2022-08-19T22:46:15.105Z,7.45
2022-08-19T22:47:48.926Z,7.17
2022-08-19T22:49:20.434Z,7.14
2022-08-19T22:50:51.927Z,7.39
2022-08-19T22:52:23.349Z,7.03
2022-08-19T22:53:54.969Z,7.36
2022-08-19T22:55:26.427Z,6.96
2022-08-19T22:56:57.837Z,7.23
2022-08-19T22:58:29.255Z,7.75
2022-08-19T23:00:01.213Z,7.30
2022-08-19T23:01:32.963Z,7.38
2022-08-19T23:03:04.489Z,7.30
2022-08-19T23:04:35.981Z,7.58
2022-08-19T23:06:07.376Z,7.96
2022-08-19T23:07:38.898Z,7.68
2022-08-19T23:09:10.276Z,7.91
2022-08-19T23:10:42.205Z,7.44
2022-08-19T23:12:13.866Z,7.43
2022-08-19T23:13:45.346Z,7.51
2022-08-19T23:15:16.753Z,7.20
2022-08-19T23:16:51.019Z,7.21
2022-08-19T23:18:23.182Z,7.08
2022-08-19T23:19:54.692Z,6.55
2022-08-19T23:21:26.088Z,6.56
2022-08-19T23:22:57.565Z,6.35
2022-08-19T23:24:29.020Z,6.15
2022-08-19T23:26:00.848Z,6.35
2022-08-19T23:27:32.314Z,6.28
2022-08-19T23:29:03.722Z,6.20
2022-08-19T23:30:35.258Z,6.51
2022-08-19T23:32:06.892Z,6.55
2022-08-19T23:33:51.397Z,7.38
2022-08-19T23:35:23.484Z,7.70
2022-08-19T23:36:54.942Z,8.19
2022-08-19T23:38:26.378Z,8.83
2022-08-19T23:39:57.793Z,9.14
2022-08-19T23:41:29.388Z,8.76
2022-08-19T23:43:00.857Z,8.91
2022-08-19T23:44:55.512Z,10.51
2022-08-19T23:46:28.139Z,11.15
2022-08-19T23:48:00.217Z,11.80
2022-08-19T23:49:31.797Z,12.69
2022-08-19T23:51:03.169Z,13.18
2022-08-19T23:52:34.658Z,13.71
2022-08-19T23:54:06.309Z,13.89
2022-08-19T23:55:38.837Z,14.21
2022-08-19T23:57:13.173Z,14.66
2022-08-19T23:58:45.687Z,15.80
